CPX363 Details

Departure: Seattle-Tacoma International Airport (KSEA)
Arrival: Fort Worth Alliance Airport (KAFW)
Route: SUMMA1 SUMMA J54 BKE J54 BOI J15 JNC ALS PNH MDANO WESAT2


Current Weather Information
KSEA 252253Z 25010KT 10SM OVC095 12/05 A2986 RMK AO2 SLP118 T01220050
KAFW 252253Z 02011KT 10SM CLR 22/08 A3018 RMK AO2 SLP215 T02170078